UKLL/LWO METAR and TAF weather

Enter ICAO airport designator
Station Type Date Time Source
UKLL METAR 2019/04/26 04:00 UTC NOAA

UKLL 260400Z 15001MPS CAVOK 11/08 Q1016 R13/CLRD// NOSIG


Station Type Date Time Source
UKLL Decoded METAR 2019/04/26 04:00 UTC NOAA

L'Viv, Ukraine (UKLL) 49-49N 023-57E 323M
Apr 26, 2019 - 12:00 AM EDT / 2019.04.26 0400 UTC
Wind: from the SSE (150 degrees) at 2 MPH (2 KT):0
Visibility: greater than 7 mile(s):0
Temperature: 51 F (11 C)
Dew Point: 46 F (8 C)
Relative Humidity: 81%
Pressure (altimeter): 30.00 in. Hg (1016 hPa)
ob: UKLL 260400Z 15001MPS CAVOK 11/08 Q1016 R13/CLRD// NOSIG
cycle: 4

Station Type Date Time Source
UKLL TAF 2019/04/25 18:09 UTC NOAA

TAF UKLL 251704Z 2518/2618 15005MPS 6000 BKN015
BECMG 2605/2607 18006G11MPS
BECMG 2611/2612 22006G11MPS
TEMPO 2612/2615 -SHRA BKN020CB

Example: see airport list